sensor_id;sensor_type;location;lat;lon;timestamp;P1;durP1;ratioP1;P2;durP2;ratioP2
23565;SDS011;22140;48.988;8.544;2022-07-29T00:03:12;9.50;;;4.13;;
23565;SDS011;22140;48.988;8.544;2022-07-29T00:08:13;7.03;;;3.67;;
23565;SDS011;22140;48.988;8.544;2022-07-29T00:13:16;6.85;;;3.35;;
23565;SDS011;22140;48.988;8.544;2022-07-29T00:18:17;9.50;;;3.97;;
23565;SDS011;22140;48.988;8.544;2022-07-29T00:23:19;7.30;;;3.42;;
23565;SDS011;22140;48.988;8.544;2022-07-29T00:28:20;8.38;;;3.80;;
23565;SDS011;22140;48.988;8.544;2022-07-29T00:33:21;8.10;;;3.57;;
23565;SDS011;22140;48.988;8.544;2022-07-29T00:38:24;10.17;;;3.70;;
23565;SDS011;22140;48.988;8.544;2022-07-29T00:43:25;6.72;;;3.50;;
23565;SDS011;22140;48.988;8.544;2022-07-29T00:48:27;7.97;;;3.90;;
23565;SDS011;22140;48.988;8.544;2022-07-29T00:53:29;9.93;;;3.87;;
23565;SDS011;22140;48.988;8.544;2022-07-29T00:58:30;8.32;;;4.03;;
23565;SDS011;22140;48.988;8.544;2022-07-29T01:03:32;7.97;;;3.80;;
23565;SDS011;22140;48.988;8.544;2022-07-29T01:08:33;9.50;;;4.10;;
23565;SDS011;22140;48.988;8.544;2022-07-29T01:13:35;7.63;;;4.00;;
23565;SDS011;22140;48.988;8.544;2022-07-29T01:18:41;9.88;;;4.30;;
23565;SDS011;22140;48.988;8.544;2022-07-29T01:34:02;9.20;;;3.80;;
23565;SDS011;22140;48.988;8.544;2022-07-29T01:39:12;7.90;;;3.88;;
23565;SDS011;22140;48.988;8.544;2022-07-29T01:44:17;9.93;;;4.33;;
23565;SDS011;22140;48.988;8.544;2022-07-29T01:49:22;9.05;;;4.40;;
23565;SDS011;22140;48.988;8.544;2022-07-29T01:59:29;9.40;;;4.33;;
23565;SDS011;22140;48.988;8.544;2022-07-29T02:04:31;9.68;;;4.18;;
23565;SDS011;22140;48.988;8.544;2022-07-29T02:09:34;8.18;;;4.20;;
23565;SDS011;22140;48.988;8.544;2022-07-29T02:14:39;7.23;;;3.90;;
23565;SDS011;22140;48.988;8.544;2022-07-29T02:19:41;9.40;;;4.20;;
23565;SDS011;22140;48.988;8.544;2022-07-29T02:24:43;9.52;;;4.60;;
23565;SDS011;22140;48.988;8.544;2022-07-29T02:29:45;8.07;;;4.30;;
23565;SDS011;22140;48.988;8.544;2022-07-29T02:34:47;8.53;;;3.90;;
23565;SDS011;22140;48.988;8.544;2022-07-29T02:39:49;8.98;;;4.15;;
23565;SDS011;22140;48.988;8.544;2022-07-29T02:44:53;9.25;;;4.30;;
23565;SDS011;22140;48.988;8.544;2022-07-29T02:50:02;10.00;;;4.90;;
23565;SDS011;22140;48.988;8.544;2022-07-29T03:00:07;8.32;;;4.18;;
23565;SDS011;22140;48.988;8.544;2022-07-29T03:05:11;8.53;;;4.50;;
23565;SDS011;22140;48.988;8.544;2022-07-29T03:10:14;9.07;;;4.10;;
23565;SDS011;22140;48.988;8.544;2022-07-29T03:15:15;7.97;;;3.80;;
23565;SDS011;22140;48.988;8.544;2022-07-29T03:20:17;8.85;;;4.25;;
23565;SDS011;22140;48.988;8.544;2022-07-29T03:25:19;8.17;;;4.17;;
23565;SDS011;22140;48.988;8.544;2022-07-29T03:30:20;12.07;;;4.40;;
23565;SDS011;22140;48.988;8.544;2022-07-29T03:35:23;8.05;;;4.22;;
23565;SDS011;22140;48.988;8.544;2022-07-29T03:40:26;8.73;;;4.47;;
23565;SDS011;22140;48.988;8.544;2022-07-29T03:45:28;9.88;;;4.68;;
23565;SDS011;22140;48.988;8.544;2022-07-29T03:50:30;10.30;;;4.50;;
23565;SDS011;22140;48.988;8.544;2022-07-29T03:55:36;9.07;;;4.63;;
23565;SDS011;22140;48.988;8.544;2022-07-29T04:00:38;7.63;;;4.17;;
23565;SDS011;22140;48.988;8.544;2022-07-29T04:05:40;8.73;;;5.00;;
23565;SDS011;22140;48.988;8.544;2022-07-29T04:10:41;10.93;;;4.32;;
23565;SDS011;22140;48.988;8.544;2022-07-29T04:15:43;8.17;;;4.37;;
23565;SDS011;22140;48.988;8.544;2022-07-29T04:20:44;7.90;;;3.97;;
23565;SDS011;22140;48.988;8.544;2022-07-29T04:25:46;8.95;;;4.50;;
23565;SDS011;22140;48.988;8.544;2022-07-29T04:30:47;9.13;;;4.27;;
23565;SDS011;22140;48.988;8.544;2022-07-29T04:35:49;17.23;;;4.80;;
23565;SDS011;22140;48.988;8.544;2022-07-29T04:40:55;9.40;;;4.75;;
23565;SDS011;22140;48.988;8.544;2022-07-29T04:45:56;12.13;;;4.70;;
23565;SDS011;22140;48.988;8.544;2022-07-29T04:50:57;8.67;;;4.70;;
23565;SDS011;22140;48.988;8.544;2022-07-29T04:55:59;14.30;;;4.47;;
23565;SDS011;22140;48.988;8.544;2022-07-29T05:01:01;9.18;;;4.90;;
23565;SDS011;22140;48.988;8.544;2022-07-29T05:06:02;9.30;;;4.13;;
23565;SDS011;22140;48.988;8.544;2022-07-29T05:11:04;10.60;;;4.97;;
23565;SDS011;22140;48.988;8.544;2022-07-29T05:16:13;8.63;;;4.30;;
23565;SDS011;22140;48.988;8.544;2022-07-29T05:21:15;8.73;;;4.10;;
23565;SDS011;22140;48.988;8.544;2022-07-29T05:26:16;8.05;;;4.57;;
23565;SDS011;22140;48.988;8.544;2022-07-29T05:31:17;12.00;;;4.80;;
23565;SDS011;22140;48.988;8.544;2022-07-29T05:36:19;8.33;;;4.27;;
23565;SDS011;22140;48.988;8.544;2022-07-29T05:41:20;11.37;;;5.10;;
23565;SDS011;22140;48.988;8.544;2022-07-29T05:46:22;10.55;;;4.80;;
23565;SDS011;22140;48.988;8.544;2022-07-29T05:51:23;9.38;;;4.30;;
23565;SDS011;22140;48.988;8.544;2022-07-29T05:56:24;8.70;;;4.50;;
23565;SDS011;22140;48.988;8.544;2022-07-29T06:01:26;8.65;;;4.55;;
23565;SDS011;22140;48.988;8.544;2022-07-29T06:06:27;10.07;;;5.07;;
23565;SDS011;22140;48.988;8.544;2022-07-29T06:11:28;10.60;;;5.30;;
23565;SDS011;22140;48.988;8.544;2022-07-29T06:16:30;9.93;;;5.22;;
23565;SDS011;22140;48.988;8.544;2022-07-29T06:21:31;8.82;;;5.20;;
23565;SDS011;22140;48.988;8.544;2022-07-29T06:26:33;10.63;;;4.33;;
23565;SDS011;22140;48.988;8.544;2022-07-29T06:31:39;10.30;;;5.00;;
23565;SDS011;22140;48.988;8.544;2022-07-29T06:36:41;11.50;;;4.75;;
23565;SDS011;22140;48.988;8.544;2022-07-29T06:41:45;9.63;;;4.82;;
23565;SDS011;22140;48.988;8.544;2022-07-29T06:46:47;10.30;;;4.30;;
23565;SDS011;22140;48.988;8.544;2022-07-29T06:51:51;10.00;;;4.30;;
23565;SDS011;22140;48.988;8.544;2022-07-29T06:56:52;11.93;;;4.60;;
23565;SDS011;22140;48.988;8.544;2022-07-29T07:01:53;9.47;;;4.00;;
23565;SDS011;22140;48.988;8.544;2022-07-29T07:06:55;10.93;;;6.53;;
23565;SDS011;22140;48.988;8.544;2022-07-29T07:11:56;12.05;;;4.40;;
23565;SDS011;22140;48.988;8.544;2022-07-29T07:16:58;7.83;;;3.97;;
23565;SDS011;22140;48.988;8.544;2022-07-29T07:22:01;8.90;;;4.40;;
23565;SDS011;22140;48.988;8.544;2022-07-29T07:27:04;8.38;;;4.32;;
23565;SDS011;22140;48.988;8.544;2022-07-29T07:32:06;12.55;;;4.68;;
23565;SDS011;22140;48.988;8.544;2022-07-29T07:37:07;11.33;;;4.27;;
23565;SDS011;22140;48.988;8.544;2022-07-29T07:42:09;8.55;;;4.40;;
23565;SDS011;22140;48.988;8.544;2022-07-29T07:47:13;9.35;;;4.50;;
23565;SDS011;22140;48.988;8.544;2022-07-29T07:52:15;12.17;;;4.53;;
23565;SDS011;22140;48.988;8.544;2022-07-29T07:57:17;10.05;;;4.38;;
23565;SDS011;22140;48.988;8.544;2022-07-29T08:02:18;8.23;;;4.47;;
23565;SDS011;22140;48.988;8.544;2022-07-29T08:07:20;7.93;;;4.60;;
23565;SDS011;22140;48.988;8.544;2022-07-29T08:12:21;8.60;;;4.47;;
23565;SDS011;22140;48.988;8.544;2022-07-29T08:17:23;10.45;;;4.63;;
23565;SDS011;22140;48.988;8.544;2022-07-29T08:22:24;9.93;;;4.25;;
23565;SDS011;22140;48.988;8.544;2022-07-29T08:27:26;9.57;;;4.17;;
23565;SDS011;22140;48.988;8.544;2022-07-29T08:32:44;7.78;;;4.00;;
23565;SDS011;22140;48.988;8.544;2022-07-29T08:37:55;7.13;;;3.63;;
23565;SDS011;22140;48.988;8.544;2022-07-29T08:42:58;8.70;;;4.33;;
23565;SDS011;22140;48.988;8.544;2022-07-29T08:47:59;7.32;;;3.70;;
23565;SDS011;22140;48.988;8.544;2022-07-29T08:53:01;8.57;;;3.85;;
23565;SDS011;22140;48.988;8.544;2022-07-29T08:58:02;9.17;;;4.10;;
23565;SDS011;22140;48.988;8.544;2022-07-29T09:03:05;8.97;;;3.50;;
23565;SDS011;22140;48.988;8.544;2022-07-29T09:08:07;6.88;;;3.63;;
23565;SDS011;22140;48.988;8.544;2022-07-29T09:13:09;8.27;;;3.70;;
23565;SDS011;22140;48.988;8.544;2022-07-29T09:18:10;9.37;;;3.57;;
23565;SDS011;22140;48.988;8.544;2022-07-29T09:23:30;7.95;;;3.50;;
23565;SDS011;22140;48.988;8.544;2022-07-29T09:28:32;10.25;;;3.92;;
23565;SDS011;22140;48.988;8.544;2022-07-29T09:33:33;7.70;;;3.63;;
23565;SDS011;22140;48.988;8.544;2022-07-29T09:38:36;8.23;;;3.90;;
23565;SDS011;22140;48.988;8.544;2022-07-29T09:43:38;10.30;;;3.92;;
23565;SDS011;22140;48.988;8.544;2022-07-29T09:48:41;9.43;;;3.60;;
23565;SDS011;22140;48.988;8.544;2022-07-29T09:53:42;9.93;;;3.87;;
23565;SDS011;22140;48.988;8.544;2022-07-29T09:58:44;7.90;;;4.00;;
23565;SDS011;22140;48.988;8.544;2022-07-29T10:03:51;11.02;;;3.92;;
23565;SDS011;22140;48.988;8.544;2022-07-29T10:08:53;7.50;;;3.60;;
23565;SDS011;22140;48.988;8.544;2022-07-29T10:13:55;10.73;;;4.00;;
23565;SDS011;22140;48.988;8.544;2022-07-29T10:18:56;9.73;;;4.45;;
23565;SDS011;22140;48.988;8.544;2022-07-29T10:23:58;11.90;;;3.73;;
23565;SDS011;22140;48.988;8.544;2022-07-29T10:29:01;8.55;;;3.67;;
23565;SDS011;22140;48.988;8.544;2022-07-29T10:34:05;8.32;;;3.88;;
23565;SDS011;22140;48.988;8.544;2022-07-29T10:44:22;8.23;;;3.80;;
23565;SDS011;22140;48.988;8.544;2022-07-29T10:49:25;8.55;;;3.95;;
23565;SDS011;22140;48.988;8.544;2022-07-29T10:59:45;8.10;;;3.53;;
23565;SDS011;22140;48.988;8.544;2022-07-29T11:15:18;10.23;;;3.50;;
23565;SDS011;22140;48.988;8.544;2022-07-29T11:25:41;11.57;;;3.22;;
23565;SDS011;22140;48.988;8.544;2022-07-29T11:30:53;8.77;;;3.30;;
23565;SDS011;22140;48.988;8.544;2022-07-29T11:36:10;6.63;;;3.20;;
23565;SDS011;22140;48.988;8.544;2022-07-29T11:51:43;6.50;;;2.60;;
23565;SDS011;22140;48.988;8.544;2022-07-29T11:56:51;6.78;;;2.92;;
23565;SDS011;22140;48.988;8.544;2022-07-29T12:01:56;7.10;;;2.75;;
23565;SDS011;22140;48.988;8.544;2022-07-29T12:07:18;6.70;;;2.63;;
23565;SDS011;22140;48.988;8.544;2022-07-29T12:12:21;6.60;;;3.22;;
23565;SDS011;22140;48.988;8.544;2022-07-29T12:22:34;8.30;;;2.97;;
23565;SDS011;22140;48.988;8.544;2022-07-29T12:27:38;9.57;;;3.40;;
23565;SDS011;22140;48.988;8.544;2022-07-29T12:32:49;9.05;;;2.90;;
23565;SDS011;22140;48.988;8.544;2022-07-29T12:37:51;7.28;;;2.88;;
23565;SDS011;22140;48.988;8.544;2022-07-29T12:43:09;8.07;;;3.73;;
23565;SDS011;22140;48.988;8.544;2022-07-29T12:48:10;6.28;;;2.70;;
23565;SDS011;22140;48.988;8.544;2022-07-29T12:53:12;5.97;;;2.60;;
23565;SDS011;22140;48.988;8.544;2022-07-29T12:58:25;6.27;;;2.67;;
23565;SDS011;22140;48.988;8.544;2022-07-29T13:03:28;6.80;;;2.50;;
23565;SDS011;22140;48.988;8.544;2022-07-29T13:08:36;7.63;;;2.58;;
23565;SDS011;22140;48.988;8.544;2022-07-29T13:13:49;5.27;;;2.53;;
23565;SDS011;22140;48.988;8.544;2022-07-29T13:19:06;8.13;;;3.07;;
23565;SDS011;22140;48.988;8.544;2022-07-29T13:24:08;8.93;;;2.75;;
23565;SDS011;22140;48.988;8.544;2022-07-29T13:29:09;5.60;;;2.53;;
23565;SDS011;22140;48.988;8.544;2022-07-29T13:34:10;8.37;;;2.43;;
23565;SDS011;22140;48.988;8.544;2022-07-29T13:39:12;5.70;;;2.55;;
23565;SDS011;22140;48.988;8.544;2022-07-29T13:44:13;6.82;;;2.63;;
23565;SDS011;22140;48.988;8.544;2022-07-29T13:49:14;16.80;;;5.43;;
23565;SDS011;22140;48.988;8.544;2022-07-29T13:54:16;7.25;;;2.67;;
23565;SDS011;22140;48.988;8.544;2022-07-29T13:59:17;6.50;;;2.60;;
23565;SDS011;22140;48.988;8.544;2022-07-29T14:04:19;10.00;;;2.40;;
23565;SDS011;22140;48.988;8.544;2022-07-29T14:09:21;7.57;;;2.53;;
23565;SDS011;22140;48.988;8.544;2022-07-29T14:14:22;7.15;;;2.25;;
23565;SDS011;22140;48.988;8.544;2022-07-29T14:19:23;6.45;;;2.50;;
23565;SDS011;22140;48.988;8.544;2022-07-29T14:24:24;7.97;;;2.30;;
23565;SDS011;22140;48.988;8.544;2022-07-29T14:29:26;6.20;;;2.17;;
23565;SDS011;22140;48.988;8.544;2022-07-29T14:34:38;14.90;;;2.40;;
23565;SDS011;22140;48.988;8.544;2022-07-29T14:39:40;10.70;;;2.60;;
23565;SDS011;22140;48.988;8.544;2022-07-29T14:44:43;5.78;;;2.35;;
23565;SDS011;22140;48.988;8.544;2022-07-29T14:49:47;7.82;;;2.40;;
23565;SDS011;22140;48.988;8.544;2022-07-29T14:54:48;5.90;;;2.30;;
23565;SDS011;22140;48.988;8.544;2022-07-29T14:59:50;7.83;;;2.63;;
23565;SDS011;22140;48.988;8.544;2022-07-29T15:04:51;6.32;;;2.40;;
23565;SDS011;22140;48.988;8.544;2022-07-29T15:09:52;9.25;;;2.58;;
23565;SDS011;22140;48.988;8.544;2022-07-29T15:14:59;8.20;;;3.20;;
23565;SDS011;22140;48.988;8.544;2022-07-29T15:20:03;5.88;;;2.28;;
23565;SDS011;22140;48.988;8.544;2022-07-29T15:25:05;9.30;;;2.40;;
23565;SDS011;22140;48.988;8.544;2022-07-29T15:30:07;6.80;;;2.10;;
23565;SDS011;22140;48.988;8.544;2022-07-29T15:35:08;6.47;;;2.50;;
23565;SDS011;22140;48.988;8.544;2022-07-29T15:40:11;5.38;;;2.00;;
23565;SDS011;22140;48.988;8.544;2022-07-29T15:45:12;7.70;;;2.47;;
23565;SDS011;22140;48.988;8.544;2022-07-29T15:50:13;5.10;;;2.00;;
23565;SDS011;22140;48.988;8.544;2022-07-29T15:55:16;6.63;;;2.60;;
23565;SDS011;22140;48.988;8.544;2022-07-29T16:00:19;7.22;;;2.20;;
23565;SDS011;22140;48.988;8.544;2022-07-29T16:05:22;6.00;;;1.90;;
23565;SDS011;22140;48.988;8.544;2022-07-29T16:10:23;8.80;;;2.60;;
23565;SDS011;22140;48.988;8.544;2022-07-29T16:15:25;5.53;;;2.03;;
23565;SDS011;22140;48.988;8.544;2022-07-29T16:20:26;6.30;;;1.90;;
23565;SDS011;22140;48.988;8.544;2022-07-29T16:25:28;6.97;;;2.35;;
23565;SDS011;22140;48.988;8.544;2022-07-29T16:30:50;8.40;;;2.17;;
23565;SDS011;22140;48.988;8.544;2022-07-29T16:35:51;7.27;;;2.30;;
23565;SDS011;22140;48.988;8.544;2022-07-29T16:40:53;9.00;;;2.00;;
23565;SDS011;22140;48.988;8.544;2022-07-29T16:45:54;5.43;;;2.03;;
23565;SDS011;22140;48.988;8.544;2022-07-29T16:50:55;5.25;;;2.10;;
23565;SDS011;22140;48.988;8.544;2022-07-29T16:55:57;6.53;;;2.07;;
23565;SDS011;22140;48.988;8.544;2022-07-29T17:00:58;6.50;;;2.10;;
23565;SDS011;22140;48.988;8.544;2022-07-29T17:05:59;7.15;;;2.30;;
23565;SDS011;22140;48.988;8.544;2022-07-29T17:11:01;8.30;;;2.10;;
23565;SDS011;22140;48.988;8.544;2022-07-29T17:16:02;5.45;;;2.08;;
23565;SDS011;22140;48.988;8.544;2022-07-29T17:21:03;7.50;;;2.50;;
23565;SDS011;22140;48.988;8.544;2022-07-29T17:26:05;5.53;;;2.40;;
23565;SDS011;22140;48.988;8.544;2022-07-29T17:31:06;6.00;;;2.40;;
23565;SDS011;22140;48.988;8.544;2022-07-29T17:36:08;8.27;;;2.30;;
23565;SDS011;22140;48.988;8.544;2022-07-29T17:41:25;9.80;;;2.70;;
23565;SDS011;22140;48.988;8.544;2022-07-29T17:46:26;6.30;;;2.50;;
23565;SDS011;22140;48.988;8.544;2022-07-29T17:51:28;8.25;;;2.80;;
23565;SDS011;22140;48.988;8.544;2022-07-29T17:56:29;7.88;;;2.60;;
23565;SDS011;22140;48.988;8.544;2022-07-29T18:01:33;9.23;;;2.80;;
23565;SDS011;22140;48.988;8.544;2022-07-29T18:06:35;7.88;;;2.67;;
23565;SDS011;22140;48.988;8.544;2022-07-29T18:11:36;6.63;;;2.38;;
23565;SDS011;22140;48.988;8.544;2022-07-29T18:16:39;9.13;;;2.60;;
23565;SDS011;22140;48.988;8.544;2022-07-29T18:21:40;7.00;;;2.87;;
23565;SDS011;22140;48.988;8.544;2022-07-29T18:26:54;8.32;;;2.80;;
23565;SDS011;22140;48.988;8.544;2022-07-29T18:31:56;6.43;;;2.60;;
23565;SDS011;22140;48.988;8.544;2022-07-29T18:37:01;7.57;;;2.47;;
23565;SDS011;22140;48.988;8.544;2022-07-29T18:42:03;5.55;;;2.25;;
23565;SDS011;22140;48.988;8.544;2022-07-29T18:47:04;7.15;;;2.72;;
23565;SDS011;22140;48.988;8.544;2022-07-29T18:52:06;6.57;;;2.50;;
23565;SDS011;22140;48.988;8.544;2022-07-29T18:57:08;8.23;;;2.55;;
23565;SDS011;22140;48.988;8.544;2022-07-29T19:02:29;10.07;;;2.60;;
23565;SDS011;22140;48.988;8.544;2022-07-29T19:07:31;8.50;;;2.60;;
23565;SDS011;22140;48.988;8.544;2022-07-29T19:12:32;7.53;;;2.50;;
23565;SDS011;22140;48.988;8.544;2022-07-29T19:17:34;8.73;;;2.63;;
23565;SDS011;22140;48.988;8.544;2022-07-29T19:22:35;6.10;;;2.60;;
23565;SDS011;22140;48.988;8.544;2022-07-29T19:27:36;7.60;;;2.40;;
23565;SDS011;22140;48.988;8.544;2022-07-29T19:32:38;6.60;;;2.60;;
23565;SDS011;22140;48.988;8.544;2022-07-29T19:37:40;9.57;;;2.93;;
23565;SDS011;22140;48.988;8.544;2022-07-29T19:42:41;8.27;;;2.90;;
23565;SDS011;22140;48.988;8.544;2022-07-29T19:47:43;8.75;;;2.80;;
23565;SDS011;22140;48.988;8.544;2022-07-29T19:52:45;6.28;;;2.42;;
23565;SDS011;22140;48.988;8.544;2022-07-29T19:57:47;8.83;;;2.47;;
23565;SDS011;22140;48.988;8.544;2022-07-29T20:02:48;6.53;;;2.65;;
23565;SDS011;22140;48.988;8.544;2022-07-29T20:07:50;8.85;;;2.55;;
23565;SDS011;22140;48.988;8.544;2022-07-29T20:12:51;6.83;;;2.47;;
23565;SDS011;22140;48.988;8.544;2022-07-29T20:17:55;6.13;;;2.45;;
23565;SDS011;22140;48.988;8.544;2022-07-29T20:22:57;9.32;;;2.47;;
23565;SDS011;22140;48.988;8.544;2022-07-29T20:27:59;7.73;;;2.33;;
23565;SDS011;22140;48.988;8.544;2022-07-29T20:33:00;6.53;;;2.37;;
23565;SDS011;22140;48.988;8.544;2022-07-29T20:38:02;8.25;;;2.38;;
23565;SDS011;22140;48.988;8.544;2022-07-29T20:43:03;10.55;;;2.55;;
23565;SDS011;22140;48.988;8.544;2022-07-29T20:48:05;7.33;;;2.40;;
23565;SDS011;22140;48.988;8.544;2022-07-29T20:53:08;8.52;;;2.15;;
23565;SDS011;22140;48.988;8.544;2022-07-29T20:58:10;6.25;;;2.50;;
23565;SDS011;22140;48.988;8.544;2022-07-29T21:03:11;6.67;;;2.10;;
23565;SDS011;22140;48.988;8.544;2022-07-29T21:08:12;8.25;;;2.63;;
23565;SDS011;22140;48.988;8.544;2022-07-29T21:13:14;5.63;;;2.30;;
23565;SDS011;22140;48.988;8.544;2022-07-29T21:18:15;9.53;;;2.40;;
23565;SDS011;22140;48.988;8.544;2022-07-29T21:23:27;8.57;;;2.60;;
23565;SDS011;22140;48.988;8.544;2022-07-29T21:28:30;6.32;;;2.10;;
23565;SDS011;22140;48.988;8.544;2022-07-29T21:33:37;6.10;;;2.30;;
23565;SDS011;22140;48.988;8.544;2022-07-29T21:38:39;7.30;;;2.60;;
23565;SDS011;22140;48.988;8.544;2022-07-29T21:43:40;8.40;;;2.55;;
23565;SDS011;22140;48.988;8.544;2022-07-29T21:48:42;7.65;;;2.60;;
23565;SDS011;22140;48.988;8.544;2022-07-29T21:53:44;6.03;;;2.63;;
23565;SDS011;22140;48.988;8.544;2022-07-29T21:58:46;7.13;;;2.75;;
23565;SDS011;22140;48.988;8.544;2022-07-29T22:03:47;6.43;;;3.10;;
23565;SDS011;22140;48.988;8.544;2022-07-29T22:08:48;7.07;;;2.90;;
23565;SDS011;22140;48.988;8.544;2022-07-29T22:13:50;7.10;;;2.80;;
23565;SDS011;22140;48.988;8.544;2022-07-29T22:18:51;6.80;;;2.58;;
23565;SDS011;22140;48.988;8.544;2022-07-29T22:23:52;7.22;;;2.72;;
23565;SDS011;22140;48.988;8.544;2022-07-29T22:28:54;6.63;;;2.80;;
23565;SDS011;22140;48.988;8.544;2022-07-29T22:33:55;6.10;;;2.60;;
23565;SDS011;22140;48.988;8.544;2022-07-29T22:38:56;6.18;;;2.40;;
23565;SDS011;22140;48.988;8.544;2022-07-29T22:43:58;6.27;;;2.80;;
23565;SDS011;22140;48.988;8.544;2022-07-29T22:48:59;7.53;;;2.72;;
23565;SDS011;22140;48.988;8.544;2022-07-29T22:54:01;9.13;;;3.25;;
23565;SDS011;22140;48.988;8.544;2022-07-29T22:59:03;5.50;;;2.70;;
23565;SDS011;22140;48.988;8.544;2022-07-29T23:04:04;7.87;;;2.53;;
23565;SDS011;22140;48.988;8.544;2022-07-29T23:09:06;8.88;;;2.45;;
23565;SDS011;22140;48.988;8.544;2022-07-29T23:14:07;6.28;;;2.92;;
23565;SDS011;22140;48.988;8.544;2022-07-29T23:19:09;6.70;;;2.43;;
23565;SDS011;22140;48.988;8.544;2022-07-29T23:24:11;5.80;;;2.42;;
23565;SDS011;22140;48.988;8.544;2022-07-29T23:29:12;7.03;;;2.42;;
23565;SDS011;22140;48.988;8.544;2022-07-29T23:34:13;5.57;;;2.57;;
23565;SDS011;22140;48.988;8.544;2022-07-29T23:39:15;6.68;;;2.80;;
23565;SDS011;22140;48.988;8.544;2022-07-29T23:44:16;5.97;;;2.40;;
23565;SDS011;22140;48.988;8.544;2022-07-29T23:49:17;7.40;;;2.73;;
23565;SDS011;22140;48.988;8.544;2022-07-29T23:54:19;6.30;;;2.60;;
23565;SDS011;22140;48.988;8.544;2022-07-29T23:59:20;6.38;;;2.67;;
